KABE

Lehigh Valley International Airport

Airport
ICAO code
KABE
IATA Code
ABE
Summary
ICAO Region
NAM
ICAO Territory
Location

Hanover Township, Pennsylvania

Serving
Allentown
Elevation
393 ft
Coordinates
40° 39' 6" N , 75° 26' 35" W
KCC
Metar
KABE 140551Z 00000KT 10SM CLR 21/17 A2992 RMK AO2 SLP128 T02110167 10278 20211 58008

Lehigh Valley, formerly Allentown-Bethlehem-Easton International Airport, is a public airport in Hanover Township, Lehigh County, Pennsylvania, USA.

 

Airport map

Aerial View

SKYbrary Partners:

Safety knowledge contributed by: